sensor_id;sensor_type;location;lat;lon;timestamp;P1;durP1;ratioP1;P2;durP2;ratioP2
22470;SDS011;11402;51.374;6.594;2023-02-20T00:01:25;14.30;;;8.27;;
22470;SDS011;11402;51.374;6.594;2023-02-20T00:03:52;14.57;;;8.73;;
22470;SDS011;11402;51.374;6.594;2023-02-20T00:06:18;15.18;;;8.98;;
22470;SDS011;11402;51.374;6.594;2023-02-20T00:08:43;13.05;;;8.20;;
22470;SDS011;11402;51.374;6.594;2023-02-20T00:11:09;13.80;;;8.20;;
22470;SDS011;11402;51.374;6.594;2023-02-20T00:13:34;17.35;;;9.40;;
22470;SDS011;11402;51.374;6.594;2023-02-20T00:16:00;17.60;;;9.75;;
22470;SDS011;11402;51.374;6.594;2023-02-20T00:18:26;17.50;;;9.48;;
22470;SDS011;11402;51.374;6.594;2023-02-20T00:20:51;17.27;;;9.85;;
22470;SDS011;11402;51.374;6.594;2023-02-20T00:23:17;18.88;;;9.35;;
22470;SDS011;11402;51.374;6.594;2023-02-20T00:25:42;16.63;;;10.40;;
22470;SDS011;11402;51.374;6.594;2023-02-20T00:28:08;19.33;;;10.65;;
22470;SDS011;11402;51.374;6.594;2023-02-20T00:30:34;16.65;;;10.90;;
22470;SDS011;11402;51.374;6.594;2023-02-20T00:32:59;18.73;;;11.13;;
22470;SDS011;11402;51.374;6.594;2023-02-20T00:35:25;17.73;;;10.60;;
22470;SDS011;11402;51.374;6.594;2023-02-20T00:37:51;20.38;;;11.25;;
22470;SDS011;11402;51.374;6.594;2023-02-20T00:40:19;20.08;;;11.98;;
22470;SDS011;11402;51.374;6.594;2023-02-20T00:42:46;19.20;;;11.13;;
22470;SDS011;11402;51.374;6.594;2023-02-20T00:45:12;17.95;;;11.55;;
22470;SDS011;11402;51.374;6.594;2023-02-20T00:47:38;18.48;;;11.43;;
22470;SDS011;11402;51.374;6.594;2023-02-20T00:50:05;19.85;;;12.20;;
22470;SDS011;11402;51.374;6.594;2023-02-20T00:52:31;21.17;;;12.15;;
22470;SDS011;11402;51.374;6.594;2023-02-20T00:54:57;20.92;;;12.13;;
22470;SDS011;11402;51.374;6.594;2023-02-20T00:57:22;20.75;;;11.52;;
22470;SDS011;11402;51.374;6.594;2023-02-20T00:59:48;18.60;;;12.27;;
22470;SDS011;11402;51.374;6.594;2023-02-20T01:02:14;22.70;;;12.02;;
22470;SDS011;11402;51.374;6.594;2023-02-20T01:04:40;20.42;;;12.07;;
22470;SDS011;11402;51.374;6.594;2023-02-20T01:07:05;23.88;;;11.82;;
22470;SDS011;11402;51.374;6.594;2023-02-20T01:09:31;19.40;;;11.32;;
22470;SDS011;11402;51.374;6.594;2023-02-20T01:11:56;22.60;;;11.50;;
22470;SDS011;11402;51.374;6.594;2023-02-20T01:14:22;17.60;;;10.68;;
22470;SDS011;11402;51.374;6.594;2023-02-20T01:16:49;20.13;;;12.32;;
22470;SDS011;11402;51.374;6.594;2023-02-20T01:19:16;17.10;;;11.07;;
22470;SDS011;11402;51.374;6.594;2023-02-20T01:21:43;21.20;;;11.20;;
22470;SDS011;11402;51.374;6.594;2023-02-20T01:24:09;18.95;;;11.50;;
22470;SDS011;11402;51.374;6.594;2023-02-20T01:26:34;18.88;;;11.80;;
22470;SDS011;11402;51.374;6.594;2023-02-20T01:29:03;17.80;;;11.95;;
22470;SDS011;11402;51.374;6.594;2023-02-20T01:31:28;19.50;;;12.20;;
22470;SDS011;11402;51.374;6.594;2023-02-20T01:33:54;17.23;;;12.13;;
22470;SDS011;11402;51.374;6.594;2023-02-20T01:36:19;18.23;;;12.13;;
22470;SDS011;11402;51.374;6.594;2023-02-20T01:38:45;19.55;;;12.40;;
22470;SDS011;11402;51.374;6.594;2023-02-20T01:41:12;18.48;;;12.27;;
22470;SDS011;11402;51.374;6.594;2023-02-20T01:43:38;19.83;;;12.38;;
22470;SDS011;11402;51.374;6.594;2023-02-20T01:49:00;22.02;;;13.38;;
22470;SDS011;11402;51.374;6.594;2023-02-20T01:51:31;20.27;;;11.65;;
22470;SDS011;11402;51.374;6.594;2023-02-20T01:54:00;18.58;;;12.23;;
22470;SDS011;11402;51.374;6.594;2023-02-20T01:56:26;20.40;;;12.02;;
22470;SDS011;11402;51.374;6.594;2023-02-20T01:58:52;20.05;;;12.38;;
22470;SDS011;11402;51.374;6.594;2023-02-20T02:01:18;20.92;;;12.75;;
22470;SDS011;11402;51.374;6.594;2023-02-20T02:03:45;20.10;;;12.95;;
22470;SDS011;11402;51.374;6.594;2023-02-20T02:06:14;25.45;;;13.60;;
22470;SDS011;11402;51.374;6.594;2023-02-20T02:08:41;26.60;;;14.75;;
22470;SDS011;11402;51.374;6.594;2023-02-20T02:11:09;25.88;;;14.15;;
22470;SDS011;11402;51.374;6.594;2023-02-20T02:13:44;25.15;;;15.20;;
22470;SDS011;11402;51.374;6.594;2023-02-20T02:16:20;24.13;;;14.07;;
22470;SDS011;11402;51.374;6.594;2023-02-20T02:19:06;27.73;;;14.45;;
22470;SDS011;11402;51.374;6.594;2023-02-20T02:25:06;27.15;;;15.38;;
22470;SDS011;11402;51.374;6.594;2023-02-20T02:27:50;30.63;;;16.83;;
22470;SDS011;11402;51.374;6.594;2023-02-20T02:30:44;27.63;;;15.55;;
22470;SDS011;11402;51.374;6.594;2023-02-20T02:33:15;32.55;;;16.27;;
22470;SDS011;11402;51.374;6.594;2023-02-20T02:38:53;34.25;;;17.00;;
22470;SDS011;11402;51.374;6.594;2023-02-20T02:41:48;33.20;;;17.48;;
22470;SDS011;11402;51.374;6.594;2023-02-20T02:46:51;31.77;;;17.45;;
22470;SDS011;11402;51.374;6.594;2023-02-20T02:52:13;33.83;;;17.08;;
22470;SDS011;11402;51.374;6.594;2023-02-20T02:54:59;33.05;;;16.52;;
22470;SDS011;11402;51.374;6.594;2023-02-20T02:57:25;30.50;;;16.48;;
22470;SDS011;11402;51.374;6.594;2023-02-20T03:00:11;28.85;;;16.00;;
22470;SDS011;11402;51.374;6.594;2023-02-20T03:02:47;28.55;;;15.45;;
22470;SDS011;11402;51.374;6.594;2023-02-20T03:05:23;29.83;;;15.65;;
22470;SDS011;11402;51.374;6.594;2023-02-20T03:08:05;31.02;;;16.20;;
22470;SDS011;11402;51.374;6.594;2023-02-20T03:10:38;29.00;;;15.48;;
22470;SDS011;11402;51.374;6.594;2023-02-20T03:13:05;27.80;;;15.40;;
22470;SDS011;11402;51.374;6.594;2023-02-20T03:15:37;29.30;;;15.23;;
22470;SDS011;11402;51.374;6.594;2023-02-20T03:18:09;29.48;;;15.75;;
22470;SDS011;11402;51.374;6.594;2023-02-20T03:20:36;26.27;;;14.93;;
22470;SDS011;11402;51.374;6.594;2023-02-20T03:23:10;33.30;;;14.50;;
22470;SDS011;11402;51.374;6.594;2023-02-20T03:25:47;31.43;;;15.67;;
22470;SDS011;11402;51.374;6.594;2023-02-20T03:28:18;29.45;;;15.15;;
22470;SDS011;11402;51.374;6.594;2023-02-20T03:30:58;27.90;;;14.10;;
22470;SDS011;11402;51.374;6.594;2023-02-20T03:33:33;25.80;;;13.25;;
22470;SDS011;11402;51.374;6.594;2023-02-20T03:36:22;29.08;;;12.68;;
22470;SDS011;11402;51.374;6.594;2023-02-20T03:39:16;28.33;;;13.63;;
22470;SDS011;11402;51.374;6.594;2023-02-20T03:42:03;25.13;;;12.63;;
22470;SDS011;11402;51.374;6.594;2023-02-20T03:44:50;23.20;;;12.70;;
22470;SDS011;11402;51.374;6.594;2023-02-20T03:47:17;26.90;;;12.38;;
22470;SDS011;11402;51.374;6.594;2023-02-20T03:49:46;23.52;;;12.10;;
22470;SDS011;11402;51.374;6.594;2023-02-20T03:52:13;22.33;;;12.02;;
22470;SDS011;11402;51.374;6.594;2023-02-20T03:54:40;28.58;;;12.13;;
22470;SDS011;11402;51.374;6.594;2023-02-20T03:57:11;21.10;;;11.82;;
22470;SDS011;11402;51.374;6.594;2023-02-20T03:59:41;23.25;;;11.38;;
22470;SDS011;11402;51.374;6.594;2023-02-20T04:02:29;19.23;;;10.68;;
22470;SDS011;11402;51.374;6.594;2023-02-20T04:04:59;19.85;;;10.25;;
22470;SDS011;11402;51.374;6.594;2023-02-20T04:07:50;22.85;;;10.43;;
22470;SDS011;11402;51.374;6.594;2023-02-20T04:10:18;23.70;;;10.00;;
22470;SDS011;11402;51.374;6.594;2023-02-20T04:12:50;24.80;;;10.77;;
22470;SDS011;11402;51.374;6.594;2023-02-20T04:15:17;17.77;;;9.40;;
22470;SDS011;11402;51.374;6.594;2023-02-20T04:17:47;21.00;;;10.07;;
22470;SDS011;11402;51.374;6.594;2023-02-20T04:20:16;17.50;;;10.10;;
22470;SDS011;11402;51.374;6.594;2023-02-20T04:22:42;18.27;;;9.02;;
22470;SDS011;11402;51.374;6.594;2023-02-20T04:27:40;19.20;;;8.98;;
22470;SDS011;11402;51.374;6.594;2023-02-20T04:30:05;21.60;;;10.00;;
22470;SDS011;11402;51.374;6.594;2023-02-20T04:32:32;19.10;;;8.88;;
22470;SDS011;11402;51.374;6.594;2023-02-20T04:34:57;18.83;;;9.02;;
22470;SDS011;11402;51.374;6.594;2023-02-20T04:37:23;22.05;;;9.07;;
22470;SDS011;11402;51.374;6.594;2023-02-20T04:39:48;20.25;;;8.68;;
22470;SDS011;11402;51.374;6.594;2023-02-20T04:42:14;23.15;;;8.82;;
22470;SDS011;11402;51.374;6.594;2023-02-20T04:44:40;20.65;;;9.48;;
22470;SDS011;11402;51.374;6.594;2023-02-20T04:47:07;17.08;;;8.93;;
22470;SDS011;11402;51.374;6.594;2023-02-20T04:49:38;20.60;;;9.13;;
22470;SDS011;11402;51.374;6.594;2023-02-20T04:52:03;21.13;;;8.65;;
22470;SDS011;11402;51.374;6.594;2023-02-20T04:54:29;15.82;;;8.40;;
22470;SDS011;11402;51.374;6.594;2023-02-20T04:56:54;19.70;;;8.50;;
22470;SDS011;11402;51.374;6.594;2023-02-20T04:59:20;18.15;;;8.82;;
22470;SDS011;11402;51.374;6.594;2023-02-20T05:01:46;18.17;;;9.07;;
22470;SDS011;11402;51.374;6.594;2023-02-20T05:04:17;20.75;;;9.20;;
22470;SDS011;11402;51.374;6.594;2023-02-20T05:06:45;21.25;;;9.30;;
22470;SDS011;11402;51.374;6.594;2023-02-20T05:09:16;14.95;;;6.55;;
22470;SDS011;11402;51.374;6.594;2023-02-20T05:11:42;16.45;;;9.13;;
22470;SDS011;11402;51.374;6.594;2023-02-20T05:14:08;22.05;;;9.68;;
22470;SDS011;11402;51.374;6.594;2023-02-20T05:16:36;22.45;;;9.95;;
22470;SDS011;11402;51.374;6.594;2023-02-20T05:19:02;17.55;;;9.68;;
22470;SDS011;11402;51.374;6.594;2023-02-20T05:21:28;25.10;;;10.43;;
22470;SDS011;11402;51.374;6.594;2023-02-20T05:24:12;20.15;;;10.38;;
22470;SDS011;11402;51.374;6.594;2023-02-20T05:26:38;21.20;;;11.20;;
22470;SDS011;11402;51.374;6.594;2023-02-20T05:29:04;20.45;;;11.18;;
22470;SDS011;11402;51.374;6.594;2023-02-20T05:31:31;22.52;;;10.95;;
22470;SDS011;11402;51.374;6.594;2023-02-20T05:33:56;23.27;;;10.80;;
22470;SDS011;11402;51.374;6.594;2023-02-20T05:36:22;21.15;;;11.55;;
22470;SDS011;11402;51.374;6.594;2023-02-20T05:38:47;23.05;;;11.35;;
22470;SDS011;11402;51.374;6.594;2023-02-20T05:41:16;23.60;;;11.65;;
22470;SDS011;11402;51.374;6.594;2023-02-20T05:43:42;26.90;;;11.90;;
22470;SDS011;11402;51.374;6.594;2023-02-20T05:46:08;24.42;;;12.70;;
22470;SDS011;11402;51.374;6.594;2023-02-20T05:48:34;23.23;;;12.32;;
22470;SDS011;11402;51.374;6.594;2023-02-20T05:50:59;24.13;;;11.68;;
22470;SDS011;11402;51.374;6.594;2023-02-20T05:53:29;22.17;;;12.35;;
22470;SDS011;11402;51.374;6.594;2023-02-20T05:55:55;28.73;;;12.30;;
22470;SDS011;11402;51.374;6.594;2023-02-20T05:58:21;25.33;;;12.80;;
22470;SDS011;11402;51.374;6.594;2023-02-20T06:00:47;21.35;;;12.45;;
22470;SDS011;11402;51.374;6.594;2023-02-20T06:03:13;26.02;;;13.85;;
22470;SDS011;11402;51.374;6.594;2023-02-20T06:05:39;25.40;;;13.18;;
22470;SDS011;11402;51.374;6.594;2023-02-20T06:08:05;21.50;;;12.57;;
22470;SDS011;11402;51.374;6.594;2023-02-20T06:10:31;27.02;;;13.20;;
22470;SDS011;11402;51.374;6.594;2023-02-20T06:12:57;30.85;;;14.05;;
22470;SDS011;11402;51.374;6.594;2023-02-20T06:15:23;26.10;;;14.25;;
22470;SDS011;11402;51.374;6.594;2023-02-20T06:17:48;26.48;;;14.98;;
22470;SDS011;11402;51.374;6.594;2023-02-20T06:20:14;25.83;;;14.00;;
22470;SDS011;11402;51.374;6.594;2023-02-20T06:22:39;23.98;;;14.25;;
22470;SDS011;11402;51.374;6.594;2023-02-20T06:25:05;24.25;;;14.85;;
22470;SDS011;11402;51.374;6.594;2023-02-20T06:27:31;31.23;;;16.15;;
22470;SDS011;11402;51.374;6.594;2023-02-20T06:29:57;27.92;;;14.85;;
22470;SDS011;11402;51.374;6.594;2023-02-20T06:32:22;28.77;;;15.85;;
22470;SDS011;11402;51.374;6.594;2023-02-20T06:34:48;29.88;;;15.57;;
22470;SDS011;11402;51.374;6.594;2023-02-20T06:37:14;26.63;;;15.88;;
22470;SDS011;11402;51.374;6.594;2023-02-20T06:39:40;29.88;;;16.08;;
22470;SDS011;11402;51.374;6.594;2023-02-20T06:42:07;26.52;;;16.52;;
22470;SDS011;11402;51.374;6.594;2023-02-20T06:44:32;35.72;;;18.00;;
22470;SDS011;11402;51.374;6.594;2023-02-20T06:46:58;31.05;;;17.73;;
22470;SDS011;11402;51.374;6.594;2023-02-20T06:49:24;32.38;;;16.88;;
22470;SDS011;11402;51.374;6.594;2023-02-20T06:51:53;35.95;;;19.33;;
22470;SDS011;11402;51.374;6.594;2023-02-20T06:54:18;39.00;;;20.40;;
22470;SDS011;11402;51.374;6.594;2023-02-20T06:56:46;34.92;;;19.10;;
22470;SDS011;11402;51.374;6.594;2023-02-20T06:59:12;31.30;;;18.60;;
22470;SDS011;11402;51.374;6.594;2023-02-20T07:01:40;30.08;;;18.70;;
22470;SDS011;11402;51.374;6.594;2023-02-20T07:04:08;36.83;;;19.60;;
22470;SDS011;11402;51.374;6.594;2023-02-20T07:06:40;37.00;;;19.85;;
22470;SDS011;11402;51.374;6.594;2023-02-20T07:09:06;34.90;;;19.52;;
22470;SDS011;11402;51.374;6.594;2023-02-20T07:11:32;33.03;;;19.70;;
22470;SDS011;11402;51.374;6.594;2023-02-20T07:13:57;38.63;;;20.55;;
22470;SDS011;11402;51.374;6.594;2023-02-20T07:16:23;39.05;;;20.20;;
22470;SDS011;11402;51.374;6.594;2023-02-20T07:18:48;36.88;;;20.75;;
22470;SDS011;11402;51.374;6.594;2023-02-20T07:21:14;40.33;;;19.88;;
22470;SDS011;11402;51.374;6.594;2023-02-20T07:23:40;31.55;;;19.23;;
22470;SDS011;11402;51.374;6.594;2023-02-20T07:26:06;34.30;;;18.40;;
22470;SDS011;11402;51.374;6.594;2023-02-20T07:28:40;36.83;;;19.30;;
22470;SDS011;11402;51.374;6.594;2023-02-20T07:31:06;34.60;;;18.95;;
22470;SDS011;11402;51.374;6.594;2023-02-20T07:33:31;32.00;;;18.95;;
22470;SDS011;11402;51.374;6.594;2023-02-20T07:35:57;35.10;;;18.77;;
22470;SDS011;11402;51.374;6.594;2023-02-20T07:38:23;41.13;;;20.02;;
22470;SDS011;11402;51.374;6.594;2023-02-20T07:40:48;35.72;;;18.33;;
22470;SDS011;11402;51.374;6.594;2023-02-20T07:43:14;34.35;;;18.10;;
22470;SDS011;11402;51.374;6.594;2023-02-20T07:45:39;32.15;;;18.42;;
22470;SDS011;11402;51.374;6.594;2023-02-20T07:48:05;33.13;;;18.13;;
22470;SDS011;11402;51.374;6.594;2023-02-20T07:50:30;32.47;;;18.73;;
22470;SDS011;11402;51.374;6.594;2023-02-20T07:52:56;33.78;;;17.65;;
22470;SDS011;11402;51.374;6.594;2023-02-20T07:55:21;29.98;;;17.35;;
22470;SDS011;11402;51.374;6.594;2023-02-20T07:57:47;28.50;;;18.08;;
22470;SDS011;11402;51.374;6.594;2023-02-20T08:00:15;33.97;;;18.90;;
22470;SDS011;11402;51.374;6.594;2023-02-20T08:02:42;35.45;;;19.27;;
22470;SDS011;11402;51.374;6.594;2023-02-20T08:05:08;31.15;;;18.42;;
22470;SDS011;11402;51.374;6.594;2023-02-20T08:07:34;34.72;;;18.02;;
22470;SDS011;11402;51.374;6.594;2023-02-20T08:10:00;33.28;;;17.15;;
22470;SDS011;11402;51.374;6.594;2023-02-20T08:12:25;32.70;;;18.25;;
22470;SDS011;11402;51.374;6.594;2023-02-20T08:14:51;30.88;;;17.05;;
22470;SDS011;11402;51.374;6.594;2023-02-20T08:17:17;28.33;;;16.58;;
22470;SDS011;11402;51.374;6.594;2023-02-20T08:19:43;28.48;;;16.15;;
22470;SDS011;11402;51.374;6.594;2023-02-20T08:22:08;30.67;;;16.85;;
22470;SDS011;11402;51.374;6.594;2023-02-20T08:24:34;26.85;;;15.95;;
22470;SDS011;11402;51.374;6.594;2023-02-20T08:27:00;27.80;;;16.52;;
22470;SDS011;11402;51.374;6.594;2023-02-20T08:29:25;30.17;;;15.95;;
22470;SDS011;11402;51.374;6.594;2023-02-20T08:31:51;28.88;;;16.35;;
22470;SDS011;11402;51.374;6.594;2023-02-20T08:34:17;26.67;;;15.65;;
22470;SDS011;11402;51.374;6.594;2023-02-20T08:36:42;27.02;;;16.20;;
22470;SDS011;11402;51.374;6.594;2023-02-20T08:39:08;29.10;;;15.80;;
22470;SDS011;11402;51.374;6.594;2023-02-20T08:41:33;28.27;;;15.55;;
22470;SDS011;11402;51.374;6.594;2023-02-20T08:43:59;31.58;;;15.77;;
22470;SDS011;11402;51.374;6.594;2023-02-20T08:46:24;31.23;;;15.57;;
22470;SDS011;11402;51.374;6.594;2023-02-20T08:48:50;27.52;;;14.75;;
22470;SDS011;11402;51.374;6.594;2023-02-20T08:51:19;23.38;;;14.55;;
22470;SDS011;11402;51.374;6.594;2023-02-20T08:53:45;29.35;;;16.35;;
22470;SDS011;11402;51.374;6.594;2023-02-20T08:56:11;26.90;;;14.25;;
22470;SDS011;11402;51.374;6.594;2023-02-20T08:58:37;28.73;;;14.85;;
22470;SDS011;11402;51.374;6.594;2023-02-20T09:01:03;27.27;;;13.80;;
22470;SDS011;11402;51.374;6.594;2023-02-20T09:03:29;22.80;;;14.15;;
22470;SDS011;11402;51.374;6.594;2023-02-20T09:05:55;25.95;;;13.88;;
22470;SDS011;11402;51.374;6.594;2023-02-20T09:08:20;23.30;;;14.48;;
22470;SDS011;11402;51.374;6.594;2023-02-20T09:10:46;28.92;;;15.15;;
22470;SDS011;11402;51.374;6.594;2023-02-20T09:13:12;27.70;;;14.38;;
22470;SDS011;11402;51.374;6.594;2023-02-20T09:15:38;29.10;;;15.00;;
22470;SDS011;11402;51.374;6.594;2023-02-20T09:18:04;27.55;;;14.18;;
22470;SDS011;11402;51.374;6.594;2023-02-20T09:20:31;25.20;;;14.27;;
22470;SDS011;11402;51.374;6.594;2023-02-20T09:22:58;23.10;;;14.15;;
22470;SDS011;11402;51.374;6.594;2023-02-20T09:25:24;26.60;;;14.88;;
22470;SDS011;11402;51.374;6.594;2023-02-20T09:27:50;28.30;;;14.70;;
22470;SDS011;11402;51.374;6.594;2023-02-20T09:30:17;26.00;;;13.80;;
22470;SDS011;11402;51.374;6.594;2023-02-20T09:32:45;29.55;;;13.85;;
22470;SDS011;11402;51.374;6.594;2023-02-20T09:35:18;28.70;;;14.70;;
22470;SDS011;11402;51.374;6.594;2023-02-20T09:37:45;27.25;;;14.35;;
22470;SDS011;11402;51.374;6.594;2023-02-20T09:40:11;24.35;;;14.07;;
22470;SDS011;11402;51.374;6.594;2023-02-20T09:42:47;26.50;;;14.43;;
22470;SDS011;11402;51.374;6.594;2023-02-20T09:45:40;25.42;;;13.80;;
22470;SDS011;11402;51.374;6.594;2023-02-20T09:48:30;25.48;;;13.35;;
22470;SDS011;11402;51.374;6.594;2023-02-20T09:51:20;26.25;;;13.90;;
22470;SDS011;11402;51.374;6.594;2023-02-20T09:53:53;31.70;;;13.37;;
22470;SDS011;11402;51.374;6.594;2023-02-20T09:56:27;25.35;;;13.18;;
22470;SDS011;11402;51.374;6.594;2023-02-20T10:01:38;22.77;;;13.93;;
22470;SDS011;11402;51.374;6.594;2023-02-20T10:04:10;24.45;;;13.75;;
22470;SDS011;11402;51.374;6.594;2023-02-20T10:06:39;22.13;;;13.18;;
22470;SDS011;11402;51.374;6.594;2023-02-20T10:09:08;27.17;;;13.13;;
22470;SDS011;11402;51.374;6.594;2023-02-20T10:11:43;27.50;;;13.27;;
22470;SDS011;11402;51.374;6.594;2023-02-20T10:14:17;23.90;;;13.55;;
22470;SDS011;11402;51.374;6.594;2023-02-20T10:17:16;22.70;;;12.32;;
22470;SDS011;11402;51.374;6.594;2023-02-20T10:20:12;25.45;;;12.40;;
22470;SDS011;11402;51.374;6.594;2023-02-20T10:22:59;20.73;;;12.57;;
22470;SDS011;11402;51.374;6.594;2023-02-20T10:25:37;26.55;;;12.32;;
22470;SDS011;11402;51.374;6.594;2023-02-20T10:30:40;20.75;;;12.88;;
22470;SDS011;11402;51.374;6.594;2023-02-20T10:33:15;25.10;;;13.02;;
22470;SDS011;11402;51.374;6.594;2023-02-20T10:36:00;24.05;;;12.98;;
22470;SDS011;11402;51.374;6.594;2023-02-20T10:38:35;22.73;;;13.13;;
22470;SDS011;11402;51.374;6.594;2023-02-20T10:43:49;28.33;;;13.75;;
22470;SDS011;11402;51.374;6.594;2023-02-20T10:46:28;23.58;;;13.18;;
22470;SDS011;11402;51.374;6.594;2023-02-20T10:49:00;23.27;;;12.35;;
22470;SDS011;11402;51.374;6.594;2023-02-20T10:51:37;23.52;;;13.07;;
22470;SDS011;11402;51.374;6.594;2023-02-20T10:54:10;23.92;;;12.18;;
22470;SDS011;11402;51.374;6.594;2023-02-20T10:56:44;22.40;;;12.23;;
22470;SDS011;11402;51.374;6.594;2023-02-20T10:59:20;23.80;;;12.43;;
22470;SDS011;11402;51.374;6.594;2023-02-20T11:01:54;23.92;;;12.75;;
22470;SDS011;11402;51.374;6.594;2023-02-20T11:04:29;26.65;;;12.57;;
22470;SDS011;11402;51.374;6.594;2023-02-20T11:07:00;23.73;;;12.82;;
22470;SDS011;11402;51.374;6.594;2023-02-20T11:09:28;24.90;;;13.02;;
22470;SDS011;11402;51.374;6.594;2023-02-20T11:11:54;25.38;;;12.65;;
22470;SDS011;11402;51.374;6.594;2023-02-20T11:14:22;21.48;;;12.18;;
22470;SDS011;11402;51.374;6.594;2023-02-20T11:16:58;21.83;;;11.75;;
22470;SDS011;11402;51.374;6.594;2023-02-20T11:25:20;21.10;;;12.50;;
22470;SDS011;11402;51.374;6.594;2023-02-20T11:27:51;23.13;;;13.00;;
22470;SDS011;11402;51.374;6.594;2023-02-20T11:33:03;24.90;;;12.73;;
22470;SDS011;11402;51.374;6.594;2023-02-20T11:35:41;25.65;;;12.63;;
22470;SDS011;11402;51.374;6.594;2023-02-20T11:41:26;23.40;;;12.05;;
22470;SDS011;11402;51.374;6.594;2023-02-20T11:43:39;22.85;;;12.88;;
22470;SDS011;11402;51.374;6.594;2023-02-20T11:46:10;19.73;;;12.48;;
22470;SDS011;11402;51.374;6.594;2023-02-20T11:51:32;21.92;;;12.18;;
22470;SDS011;11402;51.374;6.594;2023-02-20T11:59:50;22.73;;;12.40;;
22470;SDS011;11402;51.374;6.594;2023-02-20T12:02:31;22.08;;;13.23;;
22470;SDS011;11402;51.374;6.594;2023-02-20T12:05:01;25.02;;;13.07;;
22470;SDS011;11402;51.374;6.594;2023-02-20T12:10:15;24.80;;;12.32;;
22470;SDS011;11402;51.374;6.594;2023-02-20T12:12:53;24.05;;;13.70;;
22470;SDS011;11402;51.374;6.594;2023-02-20T12:15:20;23.45;;;13.38;;
22470;SDS011;11402;51.374;6.594;2023-02-20T12:18:22;21.48;;;13.13;;
22470;SDS011;11402;51.374;6.594;2023-02-20T12:35:15;21.50;;;12.45;;
22470;SDS011;11402;51.374;6.594;2023-02-20T12:38:27;22.80;;;12.38;;
22470;SDS011;11402;51.374;6.594;2023-02-20T12:55:27;22.83;;;11.40;;
22470;SDS011;11402;51.374;6.594;2023-02-20T13:01:00;24.73;;;12.05;;
22470;SDS011;11402;51.374;6.594;2023-02-20T13:03:40;22.67;;;11.60;;
22470;SDS011;11402;51.374;6.594;2023-02-20T13:06:13;22.10;;;11.68;;
22470;SDS011;11402;51.374;6.594;2023-02-20T13:11:42;23.58;;;11.32;;
22470;SDS011;11402;51.374;6.594;2023-02-20T13:19:40;19.48;;;11.85;;
22470;SDS011;11402;51.374;6.594;2023-02-20T13:22:09;19.40;;;11.13;;
22470;SDS011;11402;51.374;6.594;2023-02-20T13:24:36;19.92;;;11.52;;
22470;SDS011;11402;51.374;6.594;2023-02-20T13:27:04;19.67;;;11.05;;
22470;SDS011;11402;51.374;6.594;2023-02-20T13:29:34;18.42;;;11.63;;
22470;SDS011;11402;51.374;6.594;2023-02-20T13:32:04;22.38;;;11.13;;
22470;SDS011;11402;51.374;6.594;2023-02-20T13:34:50;24.95;;;10.98;;
22470;SDS011;11402;51.374;6.594;2023-02-20T13:45:40;19.75;;;11.95;;
22470;SDS011;11402;51.374;6.594;2023-02-20T13:53:53;23.13;;;12.40;;
22470;SDS011;11402;51.374;6.594;2023-02-20T13:56:50;23.60;;;12.18;;
22470;SDS011;11402;51.374;6.594;2023-02-20T13:59:23;24.13;;;12.45;;
22470;SDS011;11402;51.374;6.594;2023-02-20T14:01:53;24.52;;;11.35;;
22470;SDS011;11402;51.374;6.594;2023-02-20T14:04:19;19.77;;;11.75;;
22470;SDS011;11402;51.374;6.594;2023-02-20T14:06:50;29.48;;;12.98;;
22470;SDS011;11402;51.374;6.594;2023-02-20T14:09:18;24.00;;;13.35;;
22470;SDS011;11402;51.374;6.594;2023-02-20T14:11:48;22.50;;;11.45;;
22470;SDS011;11402;51.374;6.594;2023-02-20T14:14:29;20.83;;;11.85;;
22470;SDS011;11402;51.374;6.594;2023-02-20T14:17:11;27.50;;;12.35;;
22470;SDS011;11402;51.374;6.594;2023-02-20T14:19:44;22.75;;;12.20;;
22470;SDS011;11402;51.374;6.594;2023-02-20T14:24:45;21.55;;;12.07;;
22470;SDS011;11402;51.374;6.594;2023-02-20T14:27:25;24.10;;;12.80;;
22470;SDS011;11402;51.374;6.594;2023-02-20T14:32:45;21.80;;;12.25;;
22470;SDS011;11402;51.374;6.594;2023-02-20T14:35:24;21.58;;;12.32;;
22470;SDS011;11402;51.374;6.594;2023-02-20T14:40:42;28.20;;;12.98;;
22470;SDS011;11402;51.374;6.594;2023-02-20T14:43:14;23.77;;;12.77;;
22470;SDS011;11402;51.374;6.594;2023-02-20T14:45:44;25.52;;;13.05;;
22470;SDS011;11402;51.374;6.594;2023-02-20T14:48:23;22.00;;;11.93;;
22470;SDS011;11402;51.374;6.594;2023-02-20T14:53:42;21.40;;;12.55;;
22470;SDS011;11402;51.374;6.594;2023-02-20T14:56:09;24.33;;;12.88;;
22470;SDS011;11402;51.374;6.594;2023-02-20T14:58:42;22.05;;;12.65;;
22470;SDS011;11402;51.374;6.594;2023-02-20T15:01:12;21.58;;;12.45;;
22470;SDS011;11402;51.374;6.594;2023-02-20T15:03:56;19.30;;;12.60;;
22470;SDS011;11402;51.374;6.594;2023-02-20T15:06:29;23.52;;;13.23;;
22470;SDS011;11402;51.374;6.594;2023-02-20T15:08:58;28.52;;;13.18;;
22470;SDS011;11402;51.374;6.594;2023-02-20T15:11:25;22.17;;;12.55;;
22470;SDS011;11402;51.374;6.594;2023-02-20T15:13:51;21.65;;;12.32;;
22470;SDS011;11402;51.374;6.594;2023-02-20T15:16:21;25.80;;;12.52;;
22470;SDS011;11402;51.374;6.594;2023-02-20T15:18:52;25.73;;;12.68;;
22470;SDS011;11402;51.374;6.594;2023-02-20T15:24:10;22.23;;;13.18;;
22470;SDS011;11402;51.374;6.594;2023-02-20T15:26:36;22.65;;;12.98;;
22470;SDS011;11402;51.374;6.594;2023-02-20T15:29:24;22.33;;;12.18;;
22470;SDS011;11402;51.374;6.594;2023-02-20T15:32:02;27.70;;;13.05;;
22470;SDS011;11402;51.374;6.594;2023-02-20T15:34:31;18.90;;;12.32;;
22470;SDS011;11402;51.374;6.594;2023-02-20T15:36:59;23.95;;;12.43;;
22470;SDS011;11402;51.374;6.594;2023-02-20T15:39:26;23.20;;;13.05;;
22470;SDS011;11402;51.374;6.594;2023-02-20T15:41:51;23.63;;;12.75;;
22470;SDS011;11402;51.374;6.594;2023-02-20T15:44:17;22.00;;;12.57;;
22470;SDS011;11402;51.374;6.594;2023-02-20T15:46:44;18.83;;;11.80;;
22470;SDS011;11402;51.374;6.594;2023-02-20T15:49:10;21.67;;;13.38;;
22470;SDS011;11402;51.374;6.594;2023-02-20T15:51:37;23.25;;;13.00;;
22470;SDS011;11402;51.374;6.594;2023-02-20T15:54:04;21.20;;;12.80;;
22470;SDS011;11402;51.374;6.594;2023-02-20T15:56:32;25.02;;;12.77;;
22470;SDS011;11402;51.374;6.594;2023-02-20T15:59:07;27.42;;;12.93;;
22470;SDS011;11402;51.374;6.594;2023-02-20T16:01:35;22.88;;;12.88;;
22470;SDS011;11402;51.374;6.594;2023-02-20T16:04:01;22.38;;;12.75;;
22470;SDS011;11402;51.374;6.594;2023-02-20T16:06:27;19.08;;;12.02;;
22470;SDS011;11402;51.374;6.594;2023-02-20T16:08:53;28.73;;;13.73;;
22470;SDS011;11402;51.374;6.594;2023-02-20T16:11:19;21.83;;;14.38;;
22470;SDS011;11402;51.374;6.594;2023-02-20T16:13:50;22.85;;;12.45;;
22470;SDS011;11402;51.374;6.594;2023-02-20T16:18:45;24.10;;;13.32;;
22470;SDS011;11402;51.374;6.594;2023-02-20T16:21:12;20.95;;;12.50;;
22470;SDS011;11402;51.374;6.594;2023-02-20T16:23:39;23.05;;;12.95;;
22470;SDS011;11402;51.374;6.594;2023-02-20T16:26:07;23.50;;;12.50;;
22470;SDS011;11402;51.374;6.594;2023-02-20T16:28:33;18.60;;;12.13;;
22470;SDS011;11402;51.374;6.594;2023-02-20T16:30:59;19.02;;;11.05;;
22470;SDS011;11402;51.374;6.594;2023-02-20T16:33:25;20.65;;;11.55;;
22470;SDS011;11402;51.374;6.594;2023-02-20T16:35:51;21.48;;;11.88;;
22470;SDS011;11402;51.374;6.594;2023-02-20T16:38:18;20.42;;;11.95;;